Time,TemperatureF,DewpointF,PressureIn,WindDirection,WindDirectionDegrees,WindSpeedMPH,WindSpeedGustMPH,Humidity,HourlyPrecipIn,Conditions,Clouds,dailyrainin,SoftwareType,DateUTC
2013-06-24 00:02:00,62.0,56.0,29.67,SSW,200,6.0,10.0,82,0.00,,,0.36,,2013-06-24 05:02:00,
2013-06-24 00:12:00,62.0,57.0,29.66,SSW,200,5.0,9.0,83,0.00,,,0.36,,2013-06-24 05:12:00,
2013-06-24 00:22:00,62.0,57.0,29.66,SSW,200,5.0,9.0,83,0.00,,,0.36,,2013-06-24 05:22:00,
2013-06-24 00:35:00,61.0,56.0,29.67,SW,222,5.0,8.0,83,0.00,,,0.36,,2013-06-24 05:35:00,
2013-06-24 00:53:00,61.0,56.0,29.67,SW,214,6.0,10.0,84,0.00,,,0.36,,2013-06-24 05:53:00,
2013-06-24 01:06:00,62.0,56.0,29.66,South,181,6.0,9.0,82,0.00,,,0.36,,2013-06-24 06:06:00,
2013-06-24 01:13:00,62.0,56.0,29.66,SSW,210,6.0,10.0,82,0.00,,,0.36,,2013-06-24 06:13:00,
2013-06-24 01:23:00,62.0,56.0,29.66,SSW,210,6.0,10.0,82,0.00,,,0.36,,2013-06-24 06:23:00,
2013-06-24 01:35:00,62.0,56.0,29.67,South,191,7.0,11.0,81,0.00,,,0.36,,2013-06-24 06:35:00,
2013-06-24 01:44:00,62.0,56.0,29.67,SSW,212,7.0,13.0,81,0.00,,,0.36,,2013-06-24 06:44:00,
2013-06-24 01:52:00,62.0,56.0,29.67,SSW,212,7.0,13.0,81,0.00,,,0.36,,2013-06-24 06:52:00,
2013-06-24 02:03:00,62.0,56.0,29.67,SSW,210,8.0,12.0,81,0.00,,,0.36,,2013-06-24 07:03:00,
2013-06-24 02:13:00,62.0,56.0,29.67,SW,231,8.0,12.0,82,0.00,,,0.36,,2013-06-24 07:13:00,
2013-06-24 02:27:00,62.0,56.0,29.67,SW,231,8.0,12.0,82,0.00,,,0.36,,2013-06-24 07:27:00,
2013-06-24 02:46:00,62.0,57.0,29.67,SSW,205,7.0,12.0,84,0.00,,,0.36,,2013-06-24 07:46:00,
2013-06-24 02:53:00,62.0,57.0,29.67,SSW,205,7.0,12.0,84,0.00,,,0.36,,2013-06-24 07:53:00,
2013-06-24 03:13:00,61.0,56.0,29.67,SW,221,6.0,10.0,84,0.00,,,0.36,,2013-06-24 08:13:00,
2013-06-24 03:26:00,61.0,56.0,29.67,SW,221,6.0,10.0,84,0.00,,,0.36,,2013-06-24 08:26:00,
2013-06-24 03:34:00,61.0,56.0,29.67,SSW,204,5.0,11.0,83,0.00,,,0.36,,2013-06-24 08:34:00,
2013-06-24 03:45:00,61.0,55.0,29.67,SSE,165,5.0,9.0,82,0.00,,,0.36,,2013-06-24 08:45:00,
2013-06-24 03:52:00,61.0,55.0,29.67,SSE,165,5.0,9.0,82,0.00,,,0.36,,2013-06-24 08:52:00,
2013-06-24 04:05:00,61.0,55.0,29.67,SW,225,5.0,8.0,81,0.00,,,0.36,,2013-06-24 09:05:00,
2013-06-24 04:14:00,61.0,54.0,29.67,SW,235,6.0,9.0,79,0.00,,,0.36,,2013-06-24 09:14:00,
2013-06-24 04:25:00,61.0,54.0,29.67,SW,235,6.0,9.0,79,0.00,,,0.36,,2013-06-24 09:25:00,
2013-06-24 04:36:00,61.0,54.0,29.67,WSW,255,5.0,9.0,79,0.00,,,0.36,,2013-06-24 09:36:00,
2013-06-24 04:55:00,61.0,55.0,29.67,SSW,212,5.0,8.0,80,0.00,,,0.36,,2013-06-24 09:55:00,
2013-06-24 05:03:00,61.0,55.0,29.67,SW,221,4.0,7.0,81,0.00,,,0.36,,2013-06-24 10:03:00,
2013-06-24 05:13:00,60.0,54.0,29.67,SW,225,4.0,7.0,82,0.00,,,0.36,,2013-06-24 10:13:00,
2013-06-24 05:23:00,60.0,54.0,29.67,SW,225,4.0,7.0,82,0.00,,,0.36,,2013-06-24 10:23:00,
2013-06-24 05:37:00,61.0,55.0,29.67,SW,224,6.0,8.0,82,0.00,,,0.36,,2013-06-24 10:37:00,
2013-06-24 05:47:00,61.0,55.0,29.67,WSW,248,6.0,9.0,82,0.00,,,0.36,,2013-06-24 10:47:00,
2013-06-24 05:54:00,61.0,55.0,29.67,WSW,248,6.0,9.0,82,0.00,,,0.36,,2013-06-24 10:54:00,
2013-06-24 06:02:00,61.0,55.0,29.67,WSW,245,5.0,9.0,82,0.00,,,0.36,,2013-06-24 11:02:00,
2013-06-24 06:14:00,60.0,55.0,29.68,WSW,245,4.0,7.0,85,0.00,,,0.36,,2013-06-24 11:14:00,
2013-06-24 06:34:00,59.0,55.0,29.68,SW,218,2.0,4.0,87,0.00,,,0.36,,2013-06-24 11:34:00,
2013-06-24 06:54:00,60.0,56.0,29.68,SSW,205,4.0,6.0,86,0.00,,,0.36,,2013-06-24 11:54:00,
2013-06-24 07:04:00,61.0,56.0,29.68,SW,232,6.0,8.0,84,0.00,,,0.36,,2013-06-24 12:04:00,
2013-06-24 07:15:00,62.0,57.0,29.70,SW,221,6.0,13.0,83,0.00,,,0.36,,2013-06-24 12:15:00,
2013-06-24 07:23:00,62.0,57.0,29.70,SW,221,6.0,13.0,83,0.00,,,0.36,,2013-06-24 12:23:00,
2013-06-24 07:36:00,64.0,58.0,29.70,SW,233,9.0,13.0,80,0.00,,,0.36,,2013-06-24 12:36:00,
2013-06-24 07:46:00,65.0,58.0,29.70,WSW,243,9.0,13.0,79,0.00,,,0.36,,2013-06-24 12:46:00,
2013-06-24 07:53:00,65.0,58.0,29.70,WSW,243,9.0,13.0,79,0.00,,,0.36,,2013-06-24 12:53:00,
2013-06-24 08:05:00,66.0,59.0,29.70,WSW,253,8.0,11.0,77,0.00,,,0.36,,2013-06-24 13:05:00,
2013-06-24 08:14:00,68.0,59.0,29.70,WSW,249,8.0,10.0,74,0.00,,,0.36,,2013-06-24 13:14:00,
2013-06-24 08:22:00,68.0,59.0,29.70,WSW,249,8.0,10.0,74,0.00,,,0.36,,2013-06-24 13:22:00,
2013-06-24 08:35:00,69.0,60.0,29.70,WSW,253,8.0,13.0,72,0.00,,,0.36,,2013-06-24 13:35:00,
2013-06-24 09:02:00,71.0,60.0,29.69,WSW,243,5.0,10.0,69,0.00,,,0.36,,2013-06-24 14:02:00,
2013-06-24 09:14:00,72.0,60.0,29.68,West,268,7.0,10.0,66,0.00,,,0.36,,2013-06-24 14:14:00,
2013-06-24 09:22:00,72.0,60.0,29.68,West,268,7.0,10.0,66,0.00,,,0.36,,2013-06-24 14:22:00,
2013-06-24 09:36:00,73.0,61.0,29.68,WSW,240,8.0,11.0,65,0.00,,,0.36,,2013-06-24 14:36:00,
2013-06-24 09:55:00,74.0,61.0,29.68,WSW,243,7.0,11.0,65,0.00,,,0.36,,2013-06-24 14:55:00,
2013-06-24 10:27:00,76.0,62.0,29.67,SW,226,6.0,10.0,61,0.00,,,0.36,,2013-06-24 15:27:00,
2013-06-24 10:35:00,77.0,62.0,29.67,WSW,238,6.0,12.0,59,0.00,,,0.33,,2013-06-24 15:35:00,
2013-06-24 10:42:00,78.0,62.0,29.67,West,260,5.0,10.0,58,0.00,,,0.33,,2013-06-24 15:42:00,
2013-06-24 10:45:00,78.0,62.0,29.67,WSW,252,6.0,10.0,57,0.00,,,0.33,,2013-06-24 15:45:00,
2013-06-24 10:54:00,78.0,62.0,29.67,WSW,252,6.0,10.0,57,0.00,,,0.33,,2013-06-24 15:54:00,
2013-06-24 11:03:00,78.0,62.0,29.67,West,260,5.0,10.0,58,0.00,,,0.33,,2013-06-24 16:03:00,
2013-06-24 11:13:00,78.0,62.0,29.67,West,260,5.0,10.0,58,0.00,,,0.33,,2013-06-24 16:13:00,
2013-06-24 11:23:00,78.0,62.0,29.67,West,260,5.0,10.0,58,0.00,,,0.33,,2013-06-24 16:23:00,
2013-06-24 12:14:00,81.0,62.0,29.67,WSW,240,6.0,12.0,52,0.00,,,0.00,,2013-06-24 17:14:00,
2013-06-24 12:24:00,81.0,62.0,29.67,WSW,240,6.0,12.0,52,0.00,,,0.00,,2013-06-24 17:24:00,
2013-06-24 12:35:00,81.0,64.0,29.67,SW,226,6.0,13.0,56,0.00,,,0.00,,2013-06-24 17:35:00,
2013-06-24 12:55:00,81.0,65.0,29.67,WSW,245,7.0,12.0,58,0.00,,,0.00,,2013-06-24 17:55:00,
2013-06-24 13:02:00,81.0,61.0,29.67,SW,229,8.0,12.0,50,0.00,,,0.00,,2013-06-24 18:02:00,
2013-06-24 13:14:00,82.0,58.0,29.67,SSW,203,10.0,13.0,44,0.00,,,0.00,,2013-06-24 18:14:00,
2013-06-24 13:24:00,82.0,58.0,29.67,SSW,203,10.0,13.0,44,0.00,,,0.00,,2013-06-24 18:24:00,
2013-06-24 13:34:00,82.0,59.0,29.66,SW,233,10.0,15.0,45,0.00,,,0.00,,2013-06-24 18:34:00,
2013-06-24 13:45:00,83.0,59.0,29.66,WSW,242,11.0,15.0,44,0.00,,,0.00,,2013-06-24 18:45:00,
2013-06-24 13:53:00,83.0,59.0,29.66,WSW,242,11.0,15.0,44,0.00,,,0.00,,2013-06-24 18:53:00,
2013-06-24 14:06:00,83.0,61.0,29.66,SW,217,9.0,14.0,47,0.00,,,0.00,,2013-06-24 19:06:00,
2013-06-24 14:13:00,84.0,58.0,29.65,SW,226,9.0,15.0,42,0.00,,,0.00,,2013-06-24 19:13:00,
2013-06-24 14:25:00,84.0,58.0,29.65,SW,226,9.0,15.0,42,0.00,,,0.00,,2013-06-24 19:25:00,
2013-06-24 14:36:00,84.0,59.0,29.65,SW,225,8.0,14.0,43,0.00,,,0.00,,2013-06-24 19:36:00,
2013-06-24 14:44:00,84.0,58.0,29.65,SW,221,8.0,13.0,41,0.00,,,0.00,,2013-06-24 19:44:00,
2013-06-24 14:54:00,84.0,58.0,29.65,SW,221,8.0,13.0,41,0.00,,,0.00,,2013-06-24 19:54:00,
2013-06-24 15:04:00,84.0,58.0,29.65,WSW,245,9.0,17.0,42,0.00,,,0.00,,2013-06-24 20:04:00,
2013-06-24 15:12:00,84.0,59.0,29.66,South,177,11.0,16.0,43,0.00,,,0.00,,2013-06-24 20:12:00,
2013-06-24 15:23:00,84.0,59.0,29.66,South,177,11.0,16.0,43,0.00,,,0.00,,2013-06-24 20:23:00,
2013-06-24 15:34:00,85.0,59.0,29.66,SW,231,10.0,15.0,42,0.00,,,0.00,,2013-06-24 20:34:00,
2013-06-24 15:44:00,85.0,59.0,29.66,SSW,205,10.0,17.0,42,0.00,,,0.00,,2013-06-24 20:44:00,
2013-06-24 15:54:00,85.0,59.0,29.66,SSW,205,10.0,17.0,42,0.00,,,0.00,,2013-06-24 20:54:00,
2013-06-24 16:03:00,85.0,59.0,29.66,SW,226,8.0,16.0,42,0.00,,,0.00,,2013-06-24 21:03:00,
2013-06-24 16:37:00,85.0,61.0,29.65,SSW,207,7.0,14.0,44,0.00,,,0.00,,2013-06-24 21:37:00,
2013-06-24 16:53:00,85.0,56.0,29.65,WSW,253,10.0,14.0,37,0.00,,,0.00,,2013-06-24 21:53:00,
2013-06-24 17:04:00,85.0,58.0,29.65,WSW,238,7.0,15.0,40,0.00,,,0.00,,2013-06-24 22:04:00,
2013-06-24 17:13:00,84.0,57.0,29.65,SW,235,7.0,12.0,40,0.00,,,0.00,,2013-06-24 22:13:00,
2013-06-24 17:23:00,84.0,57.0,29.65,SW,235,7.0,12.0,40,0.00,,,0.00,,2013-06-24 22:23:00,
2013-06-24 17:46:00,84.0,58.0,29.65,SW,231,5.0,9.0,42,0.00,,,0.00,,2013-06-24 22:46:00,
2013-06-24 17:54:00,84.0,58.0,29.65,SW,231,5.0,9.0,42,0.00,,,0.00,,2013-06-24 22:54:00,
2013-06-24 18:05:00,84.0,59.0,29.64,SSW,212,5.0,7.0,43,0.00,,,0.00,,2013-06-24 23:05:00,
2013-06-24 18:12:00,84.0,61.0,29.64,SSE,160,1.0,6.0,46,0.00,,,0.00,,2013-06-24 23:12:00,
2013-06-24 18:34:00,83.0,60.0,29.64,South,177,4.0,9.0,46,0.00,,,0.00,,2013-06-24 23:34:00,
2013-06-24 18:44:00,85.0,61.0,29.64,South,183,4.0,12.0,45,0.00,,,0.00,,2013-06-24 23:44:00,
2013-06-24 18:53:00,85.0,61.0,29.64,South,183,4.0,12.0,45,0.00,,,0.00,,2013-06-24 23:53:00,
2013-06-24 19:03:00,85.0,60.0,29.64,South,176,6.0,11.0,43,0.00,,,0.00,,2013-06-25 00:03:00,
2013-06-24 19:34:00,85.0,61.0,29.63,South,177,1.0,5.0,45,0.00,,,0.00,,2013-06-25 00:34:00,
2013-06-24 19:45:00,83.0,61.0,29.64,South,176,3.0,9.0,47,0.00,,,0.00,,2013-06-25 00:45:00,
2013-06-24 19:54:00,83.0,61.0,29.64,South,176,3.0,9.0,47,0.00,,,0.00,,2013-06-25 00:54:00,
2013-06-24 20:03:00,83.0,60.0,29.63,SSW,204,3.0,7.0,46,0.00,,,0.00,,2013-06-25 01:03:00,
2013-06-24 20:14:00,83.0,61.0,29.64,SSW,194,4.0,8.0,47,0.00,,,0.00,,2013-06-25 01:14:00,
2013-06-24 20:23:00,83.0,61.0,29.64,SSW,194,4.0,8.0,47,0.00,,,0.00,,2013-06-25 01:23:00,
2013-06-24 20:35:00,83.0,63.0,29.63,SSE,160,2.0,6.0,51,0.00,,,0.00,,2013-06-25 01:35:00,
2013-06-24 20:44:00,81.0,63.0,29.64,SSE,148,1.0,4.0,55,0.00,,,0.00,,2013-06-25 01:44:00,
2013-06-24 21:04:00,80.0,62.0,29.64,South,186,3.0,8.0,54,0.00,,,0.00,,2013-06-25 02:04:00,
2013-06-24 21:14:00,79.0,62.0,29.65,South,177,3.0,7.0,56,0.00,,,0.00,,2013-06-25 02:14:00,
2013-06-24 21:24:00,79.0,62.0,29.65,South,177,3.0,7.0,56,0.00,,,0.00,,2013-06-25 02:24:00,
2013-06-24 21:43:00,77.0,63.0,29.64,South,186,3.0,6.0,61,0.00,,,0.00,,2013-06-25 02:43:00,
2013-06-24 21:55:00,77.0,63.0,29.64,South,186,3.0,6.0,61,0.00,,,0.00,,2013-06-25 02:55:00,
2013-06-24 22:05:00,76.0,62.0,29.65,South,190,1.0,4.0,63,0.00,,,0.00,,2013-06-25 03:05:00,
2013-06-24 22:13:00,74.0,63.0,29.65,SE,141,0.0,3.0,69,0.00,,,0.00,,2013-06-25 03:13:00,
2013-06-24 22:28:00,74.0,63.0,29.65,SE,141,0.0,3.0,69,0.00,,,0.00,,2013-06-25 03:28:00,
2013-06-24 22:40:00,73.0,63.0,29.65,SE,133,0.0,1.0,72,0.00,,,0.00,,2013-06-25 03:40:00,
2013-06-24 22:49:00,72.0,63.0,29.65,SE,127,0.0,1.0,73,0.00,,,0.00,,2013-06-25 03:49:00,
2013-06-24 22:57:00,72.0,63.0,29.65,SE,127,0.0,1.0,73,0.00,,,0.00,,2013-06-25 03:57:00,
2013-06-24 23:02:00,72.0,64.0,29.65,ESE,120,0.0,2.0,75,0.00,,,0.00,,2013-06-25 04:02:00,
2013-06-24 23:11:00,71.0,63.0,29.65,ESE,123,0.0,1.0,77,0.00,,,0.00,,2013-06-25 04:11:00,
2013-06-24 23:22:00,71.0,63.0,29.65,ESE,123,0.0,1.0,77,0.00,,,0.00,,2013-06-25 04:22:00,
2013-06-24 23:34:00,71.0,63.0,29.65,SE,130,0.0,3.0,77,0.00,,,0.00,,2013-06-25 04:34:00,
2013-06-24 23:42:00,71.0,63.0,29.65,South,179,1.0,3.0,77,0.00,,,0.00,,2013-06-25 04:42:00,
2013-06-24 23:52:00,71.0,63.0,29.65,South,179,1.0,3.0,77,0.00,,,0.00,,2013-06-25 04:52:00,